Time;durP1;ratioP1;P1;durP2;ratioP2;P2;SDS_P1;SDS_P2;PMS_P1;PMS_P2;Temp;Humidity;BMP_temperature;BMP_pressure;BME280_temperature;BME280_humidity;BME280_pressure;Samples;Min_cycle;Max_cycle;Signal;HPM_P1;HPM_P2
2021/11/06 00:00:46;;;;;;;1.95;0.85;;;23.00;80.80;;;;;;5071781;28;20485;-66
2021/11/06 00:03:14;;;;;;;2.95;1.30;;;23.10;80.30;;;;;;5071777;28;20108;-62
2021/11/06 00:05:41;;;;;;;2.15;1.05;;;23.20;79.90;;;;;;5071647;28;20069;-61
2021/11/06 00:08:09;;;;;;;5.10;1.55;;;23.10;80.20;;;;;;5071582;28;20120;-67
2021/11/06 00:10:36;;;;;;;4.15;1.13;;;23.10;79.50;;;;;;5071362;28;20347;-66
2021/11/06 00:13:03;;;;;;;4.03;1.33;;;23.20;79.50;;;;;;5070527;28;20036;-65
2021/11/06 00:15:31;;;;;;;2.75;0.93;;;23.20;80.30;;;;;;5071171;28;20036;-64
2021/11/06 00:17:59;;;;;;;2.65;1.10;;;23.10;80.10;;;;;;5070421;28;20120;-62
2021/11/06 00:20:26;;;;;;;2.45;1.10;;;23.20;80.30;;;;;;5071170;28;20382;-64
2021/11/06 00:22:53;;;;;;;1.38;0.90;;;23.10;81.10;;;;;;5071406;28;20055;-63
2021/11/06 00:25:23;;;;;;;2.55;0.90;;;23.20;80.90;;;;;;5071462;28;20017;-64
2021/11/06 00:27:51;;;;;;;1.90;1.02;;;23.20;80.00;;;;;;5071407;28;20029;-58
2021/11/06 00:30:19;;;;;;;3.55;1.20;;;23.30;79.30;;;;;;5071614;28;20028;-61
2021/11/06 00:32:47;;;;;;;1.98;0.90;;;23.40;78.50;;;;;;5071679;28;20082;-63
2021/11/06 00:35:15;;;;;;;2.78;1.08;;;23.40;80.00;;;;;;5071380;28;20479;-64
2021/11/06 00:37:43;;;;;;;2.85;1.70;;;23.40;79.10;;;;;;5071174;28;20464;-58
2021/11/06 00:40:12;;;;;;;0.82;0.57;;;23.60;78.00;;;;;;5071595;28;20024;-68
2021/11/06 00:42:40;;;;;;;3.28;1.27;;;23.70;78.10;;;;;;5071648;28;20100;-60
2021/11/06 00:45:09;;;;;;;1.65;0.90;;;23.70;76.60;;;;;;5071400;28;20031;-63
2021/11/06 00:47:37;;;;;;;1.15;0.90;;;23.80;77.20;;;;;;5070724;28;20047;-60
2021/11/06 00:50:07;;;;;;;2.47;1.00;;;23.70;77.10;;;;;;5074485;28;20111;-61
2021/11/06 00:52:35;;;;;;;3.25;1.27;;;23.70;77.60;;;;;;5075051;28;20033;-66
2021/11/06 00:55:04;;;;;;;3.30;1.17;;;23.70;77.60;;;;;;5074800;28;20081;-64
2021/11/06 00:57:31;;;;;;;4.78;1.50;;;23.80;77.20;;;;;;5073472;28;20029;-61
2021/11/06 00:59:58;;;;;;;4.78;1.20;;;23.80;76.40;;;;;;5074860;28;20483;-64
2021/11/06 01:02:26;;;;;;;1.77;0.85;;;23.80;76.60;;;;;;5074478;28;20085;-62
2021/11/06 01:04:53;;;;;;;2.63;0.75;;;23.80;78.00;;;;;;5074619;28;20025;-60
2021/11/06 01:07:21;;;;;;;1.33;0.82;;;23.80;78.50;;;;;;5075074;28;20028;-55
2021/11/06 01:09:48;;;;;;;5.25;1.27;;;23.70;78.50;;;;;;5074453;28;20027;-65
2021/11/06 01:12:16;;;;;;;4.55;1.20;;;23.80;78.70;;;;;;5074681;28;20446;-64
2021/11/06 01:14:43;;;;;;;2.50;1.00;;;23.80;77.90;;;;;;5074663;28;20351;-63
2021/11/06 01:17:10;;;;;;;1.13;0.82;;;23.90;78.20;;;;;;5074841;28;20497;-59
2021/11/06 01:19:38;;;;;;;4.50;1.30;;;23.90;78.30;;;;;;5074256;28;20032;-62
2021/11/06 01:22:05;;;;;;;2.42;0.80;;;24.00;75.90;;;;;;5074780;28;20425;-62
2021/11/06 01:24:32;;;;;;;3.13;1.17;;;24.00;75.30;;;;;;5074908;28;20078;-69
2021/11/06 01:27:00;;;;;;;2.85;1.00;;;24.10;76.30;;;;;;5074585;28;20045;-62
2021/11/06 01:29:27;;;;;;;1.92;0.93;;;24.10;77.70;;;;;;5074367;28;20031;-65
2021/11/06 01:31:55;;;;;;;1.73;0.80;;;24.10;75.70;;;;;;5074453;28;20044;-61
2021/11/06 01:34:22;;;;;;;2.20;0.98;;;24.10;76.60;;;;;;5074076;28;20502;-65
2021/11/06 01:36:50;;;;;;;1.95;0.82;;;24.10;76.90;;;;;;5073919;28;20035;-64
2021/11/06 01:39:17;;;;;;;1.67;0.80;;;24.20;76.80;;;;;;5073546;28;20052;-60
2021/11/06 01:41:45;;;;;;;3.65;1.13;;;24.00;78.20;;;;;;5072675;28;20096;-66
2021/11/06 01:44:12;;;;;;;1.98;1.08;;;24.20;75.60;;;;;;5073518;28;20020;-65
2021/11/06 01:46:40;;;;;;;2.75;0.98;;;24.10;78.00;;;;;;5073698;28;20067;-63
2021/11/06 01:49:07;;;;;;;1.92;1.02;;;24.10;78.20;;;;;;5073266;28;20027;-64
2021/11/06 01:51:34;;;;;;;1.35;0.90;;;24.10;77.10;;;;;;5073585;28;20024;-65
2021/11/06 01:54:02;;;;;;;2.25;0.95;;;24.10;77.50;;;;;;5072676;28;20044;-67
2021/11/06 01:56:30;;;;;;;4.75;1.02;;;24.20;77.50;;;;;;5067432;28;20049;-65
2021/11/06 01:58:57;;;;;;;3.92;0.90;;;24.30;75.70;;;;;;5070782;28;20060;-62
2021/11/06 02:01:25;;;;;;;4.22;1.73;;;24.40;75.90;;;;;;5066031;28;20013;-59
2021/11/06 02:03:52;;;;;;;4.13;1.10;;;24.40;76.20;;;;;;5071361;28;20033;-60
2021/11/06 02:06:20;;;;;;;5.30;1.35;;;24.40;75.80;;;;;;5069397;28;20499;-54
2021/11/06 02:08:48;;;;;;;4.32;1.15;;;24.30;76.20;;;;;;5070754;28;20032;-55
2021/11/06 02:11:15;;;;;;;2.42;0.98;;;24.40;75.70;;;;;;5070021;28;20027;-62
2021/11/06 02:13:44;;;;;;;3.53;1.20;;;24.30;77.00;;;;;;5070488;28;20040;-62
2021/11/06 02:16:12;;;;;;;3.78;1.23;;;24.30;77.70;;;;;;5071027;28;20051;-62
2021/11/06 02:18:39;;;;;;;8.80;1.58;;;24.30;76.10;;;;;;5071346;28;20031;-59
2021/11/06 02:21:09;;;;;;;5.10;1.02;;;24.30;76.90;;;;;;5071241;28;20070;-63
2021/11/06 02:23:44;;;;;;;2.83;0.85;;;24.40;77.20;;;;;;5068210;28;20048;-65
2021/11/06 02:26:13;;;;;;;4.10;1.02;;;24.30;77.30;;;;;;5069993;28;20040;-64
2021/11/06 02:28:44;;;;;;;3.45;1.52;;;24.40;76.80;;;;;;5071309;28;20463;-58
2021/11/06 02:31:12;;;;;;;2.38;0.95;;;24.50;76.70;;;;;;5069384;28;20024;-62
2021/11/06 02:33:39;;;;;;;6.28;1.20;;;24.60;75.90;;;;;;5067990;28;20131;-62
2021/11/06 02:36:07;;;;;;;2.75;1.10;;;24.70;75.50;;;;;;5070464;28;20102;-66
2021/11/06 02:38:34;;;;;;;5.15;1.23;;;24.70;75.20;;;;;;5069745;28;20052;-63
2021/11/06 02:41:02;;;;;;;3.72;1.00;;;24.70;76.30;;;;;;5070649;28;20066;-64
2021/11/06 02:43:29;;;;;;;10.20;2.17;;;24.70;75.90;;;;;;5072236;28;20031;-69
2021/11/06 02:45:57;;;;;;;4.78;1.00;;;24.70;75.80;;;;;;5071366;28;20028;-67
2021/11/06 02:48:24;;;;;;;4.32;1.00;;;24.70;75.40;;;;;;5072472;28;20048;-67
2021/11/06 02:50:52;;;;;;;3.90;1.10;;;24.60;76.50;;;;;;5072410;28;20120;-66
2021/11/06 02:53:19;;;;;;;7.70;1.45;;;24.60;76.60;;;;;;5072527;28;20028;-64
2021/11/06 02:55:48;;;;;;;3.83;1.17;;;24.70;75.70;;;;;;5071717;28;20236;-68
2021/11/06 02:58:15;;;;;;;3.50;1.73;;;24.70;75.80;;;;;;5072277;28;20021;-65
2021/11/06 03:00:43;;;;;;;1.92;0.80;;;24.70;75.60;;;;;;5071902;28;20035;-67
2021/11/06 03:03:10;;;;;;;2.20;1.13;;;24.60;76.30;;;;;;5070900;28;20021;-66
2021/11/06 03:05:38;;;;;;;3.40;1.13;;;24.60;76.70;;;;;;5072210;28;20115;-65
2021/11/06 03:08:05;;;;;;;2.80;1.08;;;24.60;76.30;;;;;;5072648;28;20036;-64
2021/11/06 03:10:33;;;;;;;3.17;1.00;;;24.50;76.70;;;;;;5070870;28;20467;-64
2021/11/06 03:13:01;;;;;;;5.68;1.15;;;24.60;75.70;;;;;;5068243;28;20032;-64
2021/11/06 03:15:29;;;;;;;17.65;13.07;;;24.70;74.50;;;;;;5066620;28;20040;-60
2021/11/06 03:17:57;;;;;;;8.68;5.18;;;24.90;74.00;;;;;;5069603;28;20427;-64
2021/11/06 03:20:25;;;;;;;5.68;3.15;;;25.00;74.00;;;;;;5069372;28;20028;-67
2021/11/06 03:22:57;;;;;;;6.43;3.38;;;25.00;71.70;;;;;;5068048;28;20032;-63
2021/11/06 03:25:26;;;;;;;7.80;3.45;;;25.00;72.00;;;;;;5066151;28;20487;-62
2021/11/06 03:27:54;;;;;;;7.15;2.50;;;25.00;74.40;;;;;;5069479;28;20059;-66
2021/11/06 03:30:22;;;;;;;9.80;2.92;;;25.10;73.40;;;;;;5069133;28;20020;-60
2021/11/06 03:32:49;;;;;;;5.10;2.75;;;25.10;71.00;;;;;;5067254;28;20178;-63
2021/11/06 03:35:17;;;;;;;7.03;1.83;;;25.10;72.30;;;;;;5069318;28;20028;-64
2021/11/06 03:37:44;;;;;;;9.07;2.75;;;25.10;70.70;;;;;;5068033;28;20097;-62
2021/11/06 03:40:13;;;;;;;10.60;2.15;;;25.00;70.10;;;;;;5069433;28;20028;-64
2021/11/06 03:42:46;;;;;;;6.78;1.98;;;25.00;69.80;;;;;;5066838;28;20027;-57
2021/11/06 03:45:14;;;;;;;6.35;1.52;;;24.90;70.50;;;;;;5069193;28;20033;-67
2021/11/06 03:47:41;;;;;;;4.25;1.80;;;24.80;70.60;;;;;;5071906;28;20020;-63
2021/11/06 03:50:11;;;;;;;9.30;2.13;;;24.70;71.20;;;;;;5070914;28;20100;-64
2021/11/06 03:52:39;;;;;;;5.95;1.73;;;24.70;71.70;;;;;;5072956;28;20040;-64
2021/11/06 03:55:09;;;;;;;5.57;2.13;;;24.70;72.00;;;;;;5071848;28;20082;-65
2021/11/06 03:57:37;;;;;;;5.18;2.25;;;24.70;72.50;;;;;;5070132;28;20552;-64
2021/11/06 04:00:08;;;;;;;6.57;2.17;;;24.60;73.10;;;;;;5072258;28;20116;-65
2021/11/06 04:02:35;;;;;;;5.53;1.60;;;24.50;73.30;;;;;;5070753;28;20107;-65
2021/11/06 04:05:03;;;;;;;5.45;2.38;;;24.50;73.80;;;;;;5070368;28;20030;-64
2021/11/06 04:07:30;;;;;;;5.28;1.73;;;24.50;73.70;;;;;;5071671;28;20043;-63
2021/11/06 04:09:58;;;;;;;5.63;1.63;;;24.50;74.00;;;;;;5071527;28;20341;-67
2021/11/06 04:12:26;;;;;;;4.55;1.67;;;24.50;74.00;;;;;;5070681;28;20043;-67
2021/11/06 04:14:53;;;;;;;5.45;1.80;;;24.40;74.40;;;;;;5071345;28;20039;-64
2021/11/06 04:17:21;;;;;;;11.10;2.10;;;24.30;75.20;;;;;;5070750;28;20025;-60
2021/11/06 04:19:48;;;;;;;5.63;1.98;;;24.30;75.40;;;;;;5071382;28;20104;-68
2021/11/06 04:22:15;;;;;;;3.58;1.50;;;24.20;75.40;;;;;;5070698;28;20051;-63
2021/11/06 04:24:43;;;;;;;9.27;1.90;;;24.30;74.50;;;;;;5075486;28;20035;-62
2021/11/06 04:27:13;;;;;;;3.92;1.35;;;24.40;74.90;;;;;;5075729;28;20424;-59
2021/11/06 04:29:40;;;;;;;7.03;1.70;;;24.50;73.10;;;;;;5075431;28;20449;-61
2021/11/06 04:32:08;;;;;;;6.78;1.40;;;24.40;72.20;;;;;;5075167;28;20102;-63
2021/11/06 04:34:36;;;;;;;5.75;1.65;;;24.50;72.00;;;;;;5073802;28;20115;-65
2021/11/06 04:37:03;;;;;;;5.03;1.90;;;24.50;72.20;;;;;;5076722;28;20070;-71
2021/11/06 04:39:30;;;;;;;11.70;2.03;;;24.50;72.80;;;;;;5076034;28;20039;-70
2021/11/06 04:41:58;;;;;;;7.35;1.50;;;24.50;72.20;;;;;;5076402;28;20130;-65
2021/11/06 04:44:25;;;;;;;3.92;1.08;;;24.50;71.40;;;;;;5075628;28;20047;-69
2021/11/06 04:46:53;;;;;;;3.55;1.15;;;24.50;71.20;;;;;;5076586;28;20035;-65
2021/11/06 04:49:20;;;;;;;4.70;1.50;;;24.50;71.80;;;;;;5074119;28;20463;-63
2021/11/06 04:51:48;;;;;;;6.05;1.27;;;24.50;71.00;;;;;;5075327;28;20443;-70
2021/11/06 04:54:15;;;;;;;7.82;1.95;;;24.50;70.30;;;;;;5075691;28;20028;-61
2021/11/06 04:56:42;;;;;;;9.25;2.13;;;24.50;71.00;;;;;;5075560;28;20044;-65
2021/11/06 04:59:10;;;;;;;6.93;2.13;;;24.50;71.30;;;;;;5076199;28;20031;-68
2021/11/06 05:01:37;;;;;;;5.88;1.52;;;24.50;71.20;;;;;;5076305;28;20025;-65
2021/11/06 05:04:08;;;;;;;13.75;2.15;;;24.50;71.10;;;;;;5060039;28;20052;-62
2021/11/06 05:06:36;;;;;;;8.73;1.50;;;24.60;71.50;;;;;;5055362;28;20494;-64
2021/11/06 05:09:04;;;;;;;4.90;1.77;;;24.60;72.00;;;;;;5054836;28;20400;-64
2021/11/06 05:11:31;;;;;;;7.25;1.58;;;24.70;72.40;;;;;;5054556;28;20024;-66
2021/11/06 05:13:59;;;;;;;14.88;2.60;;;24.60;71.80;;;;;;5053446;28;20428;-73
2021/11/06 05:16:27;;;;;;;9.95;1.48;;;24.60;72.10;;;;;;5053627;28;20124;-61
2021/11/06 05:18:55;;;;;;;7.15;1.85;;;24.70;72.50;;;;;;5054776;28;20029;-61
2021/11/06 05:21:24;;;;;;;11.55;2.33;;;24.60;72.70;;;;;;5054622;28;20380;-61
2021/11/06 05:23:51;;;;;;;8.50;2.10;;;24.70;72.80;;;;;;5053754;28;20083;-66
2021/11/06 05:26:19;;;;;;;7.72;1.90;;;24.60;73.40;;;;;;5055065;28;20112;-62
2021/11/06 05:28:47;;;;;;;10.35;2.25;;;24.70;73.40;;;;;;5055006;28;20029;-62
2021/11/06 05:31:14;;;;;;;10.25;2.10;;;24.70;73.30;;;;;;5054596;28;20087;-55
2021/11/06 05:33:41;;;;;;;10.32;2.05;;;24.70;73.60;;;;;;5053863;28;20459;-61
2021/11/06 05:36:09;;;;;;;12.48;2.78;;;24.60;72.90;;;;;;5054406;28;20021;-68
2021/11/06 05:38:36;;;;;;;11.45;2.45;;;24.70;73.50;;;;;;5054721;28;20031;-66
2021/11/06 05:41:03;;;;;;;7.22;2.00;;;24.60;73.70;;;;;;5054145;28;20033;-58
2021/11/06 05:43:31;;;;;;;8.20;2.10;;;24.60;74.30;;;;;;5054249;28;20032;-64
2021/11/06 05:45:59;;;;;;;10.30;2.30;;;24.60;74.50;;;;;;5054480;28;20075;-63
2021/11/06 05:48:26;;;;;;;11.55;2.22;;;24.60;75.20;;;;;;5054182;28;20021;-69
2021/11/06 05:50:53;;;;;;;6.97;2.20;;;24.60;75.80;;;;;;5054261;28;20093;-65
2021/11/06 05:53:21;;;;;;;16.95;2.30;;;24.60;76.00;;;;;;5054002;28;20091;-63
2021/11/06 05:55:52;;;;;;;11.07;2.33;;;24.60;76.40;;;;;;5053719;28;20159;-70
2021/11/06 05:58:22;;;;;;;12.07;2.47;;;24.40;76.30;;;;;;5053933;28;20476;-70
2021/11/06 06:00:50;;;;;;;8.70;2.60;;;24.50;76.50;;;;;;5054452;28;20063;-68
2021/11/06 06:03:18;;;;;;;14.90;2.17;;;24.50;76.90;;;;;;5053868;28;20032;-70
2021/11/06 06:05:45;;;;;;;15.07;3.40;;;24.50;77.90;;;;;;5054015;28;20017;-69
2021/11/06 06:08:13;;;;;;;10.70;2.60;;;24.40;77.10;;;;;;5054112;28;20035;-68
2021/11/06 06:10:40;;;;;;;18.85;3.05;;;24.50;77.40;;;;;;5053844;28;20025;-69
2021/11/06 06:13:08;;;;;;;12.80;3.50;;;24.40;77.60;;;;;;5053672;28;20087;-72
2021/11/06 06:15:35;;;;;;;11.77;4.00;;;24.20;78.00;;;;;;5053862;28;20017;-67
2021/11/06 06:18:02;;;;;;;17.80;3.65;;;24.20;78.40;;;;;;5053486;28;20467;-69
2021/11/06 06:20:30;;;;;;;8.98;2.58;;;24.10;78.70;;;;;;5053232;28;20104;-67
2021/11/06 06:22:57;;;;;;;13.88;2.47;;;24.00;78.90;;;;;;5053556;28;20017;-71
2021/11/06 06:25:25;;;;;;;12.60;3.33;;;24.00;78.60;;;;;;5053336;28;20029;-72
2021/11/06 06:27:53;;;;;;;14.13;3.83;;;23.90;79.20;;;;;;5052445;28;20021;-68
2021/11/06 06:30:21;;;;;;;13.18;3.42;;;23.90;79.10;;;;;;5053140;28;20025;-70
2021/11/06 06:32:49;;;;;;;13.55;2.88;;;23.90;78.60;;;;;;5053352;28;20070;-72
2021/11/06 06:35:17;;;;;;;10.88;2.42;;;23.70;78.10;;;;;;5068835;28;20021;-71
2021/11/06 06:37:44;;;;;;;14.60;2.38;;;23.60;78.50;;;;;;5053472;28;20025;-69
2021/11/06 06:40:13;;;;;;;10.55;2.42;;;23.40;79.60;;;;;;5053663;28;20025;-69
2021/11/06 06:42:41;;;;;;;8.90;2.55;;;23.30;80.40;;;;;;5053256;28;20036;-67
2021/11/06 06:45:09;;;;;;;12.60;2.80;;;23.30;80.70;;;;;;5057677;28;20016;-68
2021/11/06 06:47:36;;;;;;;15.70;2.63;;;23.40;80.30;;;;;;5071208;28;20028;-71
2021/11/06 06:50:05;;;;;;;10.73;2.58;;;23.30;80.40;;;;;;5073698;28;20047;-71
2021/11/06 06:52:33;;;;;;;16.50;3.50;;;23.30;81.60;;;;;;5071972;28;20060;-70
2021/11/06 06:55:01;;;;;;;12.75;2.97;;;23.30;81.10;;;;;;5073329;28;20095;-70
2021/11/06 06:57:28;;;;;;;13.18;2.60;;;23.20;81.50;;;;;;5073262;28;20043;-69
2021/11/06 06:59:56;;;;;;;14.18;3.80;;;23.20;81.80;;;;;;5073191;28;20485;-70
2021/11/06 07:02:23;;;;;;;15.25;2.40;;;23.20;81.00;;;;;;5072747;28;20130;-72
2021/11/06 07:04:50;;;;;;;15.93;3.78;;;23.20;81.80;;;;;;5072929;28;20013;-68
2021/11/06 07:07:18;;;;;;;14.80;3.65;;;23.10;82.80;;;;;;5072757;28;20375;-60
2021/11/06 07:09:45;;;;;;;23.20;3.97;;;23.10;83.10;;;;;;5072414;28;20096;-60
2021/11/06 07:12:13;;;;;;;12.63;2.88;;;23.10;83.20;;;;;;5072448;28;20075;-60
2021/11/06 07:14:40;;;;;;;12.13;3.10;;;23.20;83.10;;;;;;5072400;28;20024;-62
2021/11/06 07:17:07;;;;;;;13.25;3.35;;;23.20;82.80;;;;;;5072172;28;20487;-67
2021/11/06 07:19:35;;;;;;;12.75;2.90;;;23.20;82.70;;;;;;5072165;28;20029;-62
2021/11/06 07:22:06;;;;;;;10.82;2.75;;;23.20;82.90;;;;;;5066184;28;20036;-62
2021/11/06 07:24:36;;;;;;;15.73;5.53;;;23.20;83.30;;;;;;5069181;28;20036;-63
2021/11/06 07:27:09;;;;;;;34.45;15.65;;;23.30;83.90;;;;;;5068848;28;20021;-61
2021/11/06 07:29:37;;;;;;;80.07;41.55;;;23.20;83.70;;;;;;5068847;28;20503;-59
2021/11/06 07:32:05;;;;;;;140.75;76.82;;;23.30;83.40;;;;;;5069850;28;20056;-62
2021/11/06 07:34:33;;;;;;;153.05;81.57;;;23.30;83.40;;;;;;5068825;28;20105;-68
2021/11/06 07:37:01;;;;;;;176.05;94.15;;;23.30;83.40;;;;;;5069721;28;20024;-62
2021/11/06 07:39:28;;;;;;;153.48;83.13;;;23.30;83.50;;;;;;5066429;28;20112;-59
2021/11/06 07:41:56;;;;;;;118.70;68.00;;;23.20;83.60;;;;;;5072485;28;20032;-64
2021/11/06 07:44:23;;;;;;;138.93;77.43;;;23.20;83.60;;;;;;5071533;28;20033;-63
2021/11/06 07:46:51;;;;;;;145.10;80.07;;;23.20;83.70;;;;;;5070798;28;20384;-66
2021/11/06 07:49:18;;;;;;;149.75;83.28;;;23.20;83.90;;;;;;5072374;28;20379;-64
2021/11/06 07:51:46;;;;;;;141.90;80.25;;;23.20;84.10;;;;;;5071328;28;20154;-61
2021/11/06 07:54:13;;;;;;;139.75;80.70;;;23.10;84.30;;;;;;5071734;28;20032;-59
2021/11/06 07:56:41;;;;;;;132.70;76.43;;;23.10;84.40;;;;;;5071602;28;20048;-58
2021/11/06 07:59:08;;;;;;;125.50;72.88;;;23.10;84.50;;;;;;5076165;28;20047;-65
2021/11/06 08:01:35;;;;;;;118.32;68.32;;;23.00;84.60;;;;;;5075982;28;20031;-60
2021/11/06 08:04:03;;;;;;;118.88;67.63;;;23.00;84.70;;;;;;5076058;28;20056;-62
2021/11/06 08:06:31;;;;;;;121.53;67.22;;;23.00;84.80;;;;;;5076087;28;20032;-60
2021/11/06 08:08:58;;;;;;;108.38;61.08;;;23.00;85.00;;;;;;5075236;28;20475;-59
2021/11/06 08:11:26;;;;;;;102.97;61.90;;;22.90;85.00;;;;;;5076413;28;20058;-55
2021/11/06 08:13:54;;;;;;;100.07;58.42;;;22.90;85.00;;;;;;5075961;28;20029;-59
2021/11/06 08:16:21;;;;;;;101.30;59.55;;;22.90;85.10;;;;;;5075971;28;20017;-58
2021/11/06 08:18:50;;;;;;;101.10;59.78;;;22.90;85.00;;;;;;5075713;28;20104;-61
2021/11/06 08:21:18;;;;;;;97.75;56.72;;;22.80;85.00;;;;;;5075676;28;20412;-58
2021/11/06 08:23:45;;;;;;;93.70;54.15;;;22.80;85.20;;;;;;5075464;28;20094;-60
2021/11/06 08:26:13;;;;;;;84.05;51.60;;;22.80;85.10;;;;;;5075684;28;20534;-64
2021/11/06 08:28:40;;;;;;;87.78;52.33;;;22.80;85.20;;;;;;5075519;28;20090;-62
2021/11/06 08:31:08;;;;;;;78.85;49.45;;;22.70;85.40;;;;;;5075866;28;20033;-63
2021/11/06 08:33:35;;;;;;;76.35;46.97;;;22.70;85.40;;;;;;5075589;28;20459;-63
2021/11/06 08:36:02;;;;;;;87.35;48.22;;;22.80;85.60;;;;;;5075693;28;20029;-61
2021/11/06 08:38:33;;;;;;;83.53;46.72;;;22.70;85.60;;;;;;5075598;28;20028;-65
2021/11/06 08:41:01;;;;;;;76.53;44.13;;;22.70;85.60;;;;;;5075535;28;20391;-66
2021/11/06 08:43:29;;;;;;;75.65;44.50;;;22.70;85.90;;;;;;5075635;28;20028;-63
2021/11/06 08:45:57;;;;;;;64.80;41.50;;;22.70;86.00;;;;;;5075211;28;20040;-55
2021/11/06 08:48:25;;;;;;;72.53;42.17;;;22.70;86.00;;;;;;5075398;28;20055;-61
2021/11/06 08:50:52;;;;;;;73.45;41.40;;;22.60;85.90;;;;;;5074145;28;20020;-66
2021/11/06 08:53:20;;;;;;;67.80;39.75;;;22.60;86.20;;;;;;5075032;28;20040;-66
2021/11/06 08:55:47;;;;;;;71.20;40.10;;;22.60;86.00;;;;;;5074921;28;20507;-67
2021/11/06 08:58:15;;;;;;;60.10;36.60;;;22.60;86.20;;;;;;5075296;28;20533;-63
2021/11/06 09:00:45;;;;;;;66.45;36.80;;;22.60;86.10;;;;;;5075069;28;20021;-63
2021/11/06 09:03:19;;;;;;;54.28;33.28;;;22.60;86.40;;;;;;5074769;28;20024;-66
2021/11/06 09:05:51;;;;;;;57.20;33.80;;;22.50;86.10;;;;;;5074978;28;20108;-56
2021/11/06 09:08:25;;;;;;;64.73;33.33;;;22.50;86.50;;;;;;5075304;28;20024;-66
2021/11/06 09:10:55;;;;;;;56.70;31.77;;;22.50;86.50;;;;;;5074704;28;20250;-66
2021/11/06 09:13:27;;;;;;;62.25;32.95;;;22.50;86.50;;;;;;5073682;28;20033;-67
2021/11/06 09:15:55;;;;;;;55.05;31.55;;;22.40;86.60;;;;;;5074798;28;20444;-59
2021/11/06 09:18:22;;;;;;;53.72;31.27;;;22.40;86.70;;;;;;5074626;28;20071;-61
2021/11/06 09:20:50;;;;;;;47.38;28.45;;;22.40;86.80;;;;;;5074972;28;20028;-66
2021/11/06 09:23:17;;;;;;;54.80;30.40;;;22.40;87.00;;;;;;5074880;28;20081;-68
2021/11/06 09:25:45;;;;;;;43.58;26.88;;;22.40;87.00;;;;;;5074883;28;20021;-62
2021/11/06 09:28:12;;;;;;;54.17;28.70;;;22.40;86.90;;;;;;5074845;28;20021;-64
2021/11/06 09:30:39;;;;;;;47.22;26.92;;;22.40;87.20;;;;;;5074953;28;20169;-60
2021/11/06 09:33:07;;;;;;;43.78;25.55;;;22.30;87.10;;;;;;5074512;28;20094;-67
2021/11/06 09:35:35;;;;;;;47.05;25.52;;;22.30;87.00;;;;;;5074435;28;20475;-64
2021/11/06 09:38:02;;;;;;;40.80;24.48;;;22.40;87.50;;;;;;5074614;28;20250;-63
2021/11/06 09:40:30;;;;;;;36.45;21.60;;;22.30;87.30;;;;;;5074539;28;20028;-68
2021/11/06 09:42:57;;;;;;;39.15;23.23;;;22.30;87.10;;;;;;5074189;28;20032;-63
2021/11/06 09:45:25;;;;;;;40.42;21.35;;;22.30;87.50;;;;;;5074065;28;20078;-59
2021/11/06 09:47:52;;;;;;;39.80;22.33;;;22.30;87.70;;;;;;5072837;28;20031;-69
2021/11/06 09:50:21;;;;;;;38.90;20.98;;;22.30;87.40;;;;;;5074344;28;20032;-64
2021/11/06 09:52:54;;;;;;;35.20;20.77;;;22.30;87.90;;;;;;5074181;28;20032;-66
2021/11/06 09:55:23;;;;;;;37.05;20.00;;;22.20;87.50;;;;;;5072636;28;20048;-62
2021/11/06 09:57:52;;;;;;;34.80;20.05;;;22.30;87.50;;;;;;5074029;28;20024;-65
2021/11/06 10:00:21;;;;;;;30.58;18.73;;;22.30;87.60;;;;;;5074046;28;20372;-61
2021/11/06 10:02:54;;;;;;;33.22;18.27;;;22.20;87.60;;;;;;5072728;28;20062;-60
2021/11/06 10:05:47;;;;;;;33.10;17.20;;;22.20;87.70;;;;;;5072947;28;20012;-67
2021/11/06 10:08:19;;;;;;;30.90;17.30;;;22.20;87.80;;;;;;5074050;28;20097;-65
2021/11/06 10:10:47;;;;;;;28.63;16.55;;;22.20;87.90;;;;;;5073986;28;20051;-63
2021/11/06 10:13:15;;;;;;;29.55;16.92;;;22.20;87.90;;;;;;5074106;28;20044;-63
2021/11/06 10:15:46;;;;;;;30.25;16.35;;;22.20;87.70;;;;;;5073571;28;20421;-61
2021/11/06 10:18:23;;;;;;;29.10;17.75;;;22.20;88.00;;;;;;5073676;28;20056;-64
2021/11/06 10:21:01;;;;;;;32.42;16.17;;;22.20;87.90;;;;;;5072948;28;20024;-64
2021/11/06 10:23:38;;;;;;;28.55;15.70;;;22.20;87.90;;;;;;5073587;28;20098;-66
2021/11/06 10:26:12;;;;;;;26.88;15.18;;;22.20;87.90;;;;;;5073542;28;20024;-67
2021/11/06 10:28:40;;;;;;;25.10;14.80;;;22.10;87.90;;;;;;5073242;28;20059;-69
2021/11/06 10:31:08;;;;;;;26.60;15.02;;;22.10;87.90;;;;;;5073201;28;20025;-61
2021/11/06 10:33:50;;;;;;;27.33;14.25;;;22.10;87.90;;;;;;5073507;28;20444;-67
2021/11/06 10:36:24;;;;;;;26.17;13.70;;;22.10;88.10;;;;;;5073924;28;20017;-66
2021/11/06 10:39:10;;;;;;;26.23;12.77;;;22.10;88.60;;;;;;5066756;28;20289;-59
2021/11/06 10:41:41;;;;;;;29.27;13.57;;;22.10;88.80;;;;;;5070445;28;20033;-50
2021/11/06 10:44:09;;;;;;;30.73;13.65;;;22.10;89.00;;;;;;5068334;28;20536;-59
2021/11/06 10:46:37;;;;;;;30.40;15.00;;;22.10;89.10;;;;;;5068739;28;20029;-58
2021/11/06 10:49:24;;;;;;;23.90;13.70;;;22.10;89.00;;;;;;5068940;28;20183;-60
2021/11/06 10:52:03;;;;;;;30.45;13.35;;;22.10;89.00;;;;;;5066562;28;20084;-54
2021/11/06 10:54:31;;;;;;;24.08;11.98;;;22.10;88.90;;;;;;5068561;28;20418;-58
2021/11/06 10:57:03;;;;;;;26.02;13.02;;;22.10;88.90;;;;;;5068394;28;20058;-57
2021/11/06 10:59:31;;;;;;;29.20;14.30;;;22.10;89.00;;;;;;5067105;28;20540;-54
2021/11/06 11:01:58;;;;;;;25.65;12.27;;;22.10;88.90;;;;;;5068631;28;20032;-60
2021/11/06 11:04:36;;;;;;;22.00;12.40;;;22.20;88.80;;;;;;5068021;28;20482;-60
2021/11/06 11:07:03;;;;;;;21.40;11.07;;;22.20;88.80;;;;;;5069482;28;20142;-64
2021/11/06 11:09:37;;;;;;;21.30;11.90;;;22.20;88.80;;;;;;5064223;28;20425;-56
2021/11/06 11:12:16;;;;;;;25.85;13.68;;;22.20;88.80;;;;;;5066773;28;20067;-57
2021/11/06 11:14:55;;;;;;;27.27;11.73;;;22.20;88.60;;;;;;5066483;28;20032;-54
2021/11/06 11:17:47;;;;;;;27.23;12.55;;;22.20;88.60;;;;;;5068745;28;20130;-54
2021/11/06 11:21:00;;;;;;;25.70;12.00;;;22.20;88.50;;;;;;5064005;28;20076;-56
2021/11/06 11:23:27;;;;;;;25.80;11.27;;;22.20;88.50;;;;;;5068368;28;20025;-59
2021/11/06 11:25:56;;;;;;;24.25;11.18;;;22.20;88.40;;;;;;5069386;28;20051;-55
2021/11/06 11:28:23;;;;;;;22.48;11.32;;;22.30;88.50;;;;;;5068928;28;20016;-61
2021/11/06 11:30:52;;;;;;;22.35;10.45;;;22.30;88.50;;;;;;5068250;28;20025;-57
2021/11/06 11:33:23;;;;;;;24.20;11.95;;;22.30;88.40;;;;;;5069519;28;20082;-59
2021/11/06 11:35:58;;;;;;;24.25;11.48;;;22.30;88.50;;;;;;5067057;28;20016;-55
2021/11/06 11:38:27;;;;;;;23.25;10.77;;;22.20;88.40;;;;;;5068508;28;20020;-54
2021/11/06 11:41:26;;;;;;;22.85;11.00;;;22.30;88.50;;;;;;5068297;28;20025;-55
2021/11/06 11:44:30;;;;;;;23.33;10.48;;;22.20;88.30;;;;;;5032064;28;20029;-57
2021/11/06 11:47:32;;;;;;;21.40;10.38;;;22.30;88.50;;;;;;5067498;28;20028;-63
2021/11/06 11:50:03;;;;;;;19.77;10.05;;;22.20;88.40;;;;;;5064938;28;20043;-60
2021/11/06 11:52:36;;;;;;;20.05;9.52;;;22.30;88.50;;;;;;5069881;28;20099;-59
2021/11/06 11:55:17;;;;;;;20.00;10.02;;;22.20;88.40;;;;;;5068964;28;20544;-57
2021/11/06 11:57:52;;;;;;;18.92;10.00;;;22.20;88.50;;;;;;5066383;28;20067;-66
2021/11/06 12:00:19;;;;;;;21.23;11.10;;;22.20;88.40;;;;;;5068324;28;20037;-67
2021/11/06 12:03:03;;;;;;;18.77;9.82;;;22.20;88.40;;;;;;5072389;28;20108;-69
2021/11/06 12:05:34;;;;;;;18.48;9.75;;;22.20;88.40;;;;;;5071939;28;20024;-63
2021/11/06 12:08:13;;;;;;;21.07;11.00;;;22.20;88.50;;;;;;5072105;28;20368;-66
2021/11/06 12:10:45;;;;;;;17.02;9.30;;;22.20;88.40;;;;;;5071985;28;20036;-65
2021/11/06 12:13:28;;;;;;;17.08;9.70;;;22.20;88.40;;;;;;5070457;28;20446;-62
2021/11/06 12:16:04;;;;;;;20.50;10.55;;;22.20;88.40;;;;;;5071677;28;20028;-65
2021/11/06 12:18:34;;;;;;;18.98;10.38;;;22.20;88.40;;;;;;5072035;28;20100;-61
2021/11/06 12:23:44;;;;;;;;;;;22.10;88.30;;;;;;5071886;28;20086;-61
2021/11/06 12:26:25;;;;;;;15.90;9.43;;;22.10;88.30;;;;;;5070476;28;19904;-63
2021/11/06 12:29:15;;;;;;;14.80;8.02;;;22.10;88.40;;;;;;5072018;28;20024;-64
2021/11/06 12:31:45;;;;;;;18.40;8.55;;;22.10;88.20;;;;;;5065254;28;20033;-63
2021/11/06 12:34:46;;;;;;;13.70;7.70;;;22.10;88.30;;;;;;5071857;28;20038;-59
2021/11/06 12:37:39;;;;;;;20.08;9.05;;;22.10;88.40;;;;;;5069052;28;20052;-62
2021/11/06 12:40:18;;;;;;;17.65;8.20;;;22.10;88.40;;;;;;5058515;28;20040;-58
2021/11/06 12:43:08;;;;;;;17.52;9.07;;;22.10;88.40;;;;;;5067822;28;20047;-63
2021/11/06 12:45:35;;;;;;;15.77;8.50;;;22.00;88.20;;;;;;5068057;28;20028;-61
2021/11/06 12:48:14;;;;;;;19.30;8.25;;;22.10;88.60;;;;;;5069561;28;20024;-63
2021/11/06 12:50:58;;;;;;;15.32;8.57;;;22.10;88.40;;;;;;5068626;28;20025;-61
2021/11/06 12:53:38;;;;;;;19.90;8.70;;;22.00;88.30;;;;;;5072868;28;20047;-59